• Join FlightAware (Why Join?)
  • Login
  • US Flag 
04:02PM EDT


 

Airport Tracker/Info


-or-


 

Live Flight TrackerFlight Track Log ✈ SWA1245 ✈ 08-May-2013 ✈ KLAX - KSTL

Flight Track Log - Related Links

Times and Time Zones

All times are in EDT time to prevent confusion due to time zone crossing. See the SWA1245 flight status page for this flight to view local times or setup timezone preferences in your user account.

Time Position Orientation Groundspeed Altitude Reporting Facility
EDT Latitude Longitude Course Direction KTS MPH feet Rate Location/Type
11:43AM 33.9358 -118.5311 262° West 214 246 4,000  Level Los Angeles Center
11:44AM 33.9025 -118.5850 233° Southwest 245 282 6,300 2,100 Climbing Los Angeles Center
11:45AM 33.8892 -118.5111 102° East 265 305 8,400 1,980 Climbing Los Angeles Center
11:46AM 33.9297 -118.4378 56° Northeast 276 318 10,400 1,740 Climbing Los Angeles Center
11:47AM 33.9836 -118.3469 54° Northeast 330 380 12,000 1,740 Climbing Los Angeles Center
11:48AM 34.3100 -117.7467 59° Northeast  Level FlightAware Approximate
11:48AM 34.0397 -118.2461 56° Northeast 356 410 14,000  Level Los Angeles Center
11:49AM 34.0981 -118.1408 56° Northeast 374 430 16,300 2,100 Climbing Los Angeles Center
11:50AM 34.1728 -118.0106 55° Northeast 391 450 18,400 1,860 Climbing Los Angeles Center
11:52AM 34.2356 -117.8992 56° Northeast 399 459 20,200 1,620 Climbing Los Angeles Center
11:53AM 34.2992 -117.7850 56° Northeast 408 470 21,800 1,500 Climbing Los Angeles Center
11:54AM 34.3642 -117.6672 56° Northeast 417 480 23,300 1,380 Climbing Los Angeles Center
11:55AM 34.4331 -117.5428 56° Northeast 430 495 24,700 1,260 Climbing Los Angeles Center
11:56AM 34.5092 -117.4281 51° Northeast 438 504 26,000 1,140 Climbing Los Angeles Center
11:57AM 34.5911 -117.3147 49° Northeast 447 514 27,100 1,020 Climbing Los Angeles Center
11:58AM 34.6903 -117.1747 49° Northeast 459 528 28,200 1,080 Climbing Los Angeles Center
11:59AM 34.7750 -117.0542 49° Northeast 471 542 29,400 1,140 Climbing Los Angeles Center
12:00PM 34.8600 -116.9319 50° Northeast 476 548 30,600 1,080 Climbing Los Angeles Center
12:01PM 34.9444 -116.8122 49° Northeast 472 543 31,700 900 Climbing Los Angeles Center
12:02PM 35.0289 -116.6917 49° Northeast 471 542 32,500 960 Climbing Los Angeles Center
12:03PM 35.1308 -116.5453 50° Northeast 473 544 33,800 1,200 Climbing Los Angeles Center
12:04PM 35.2144 -116.4261 49° Northeast 467 537 35,000 540 Climbing Los Angeles Center
12:05PM 35.2967 -116.3081 50° Northeast 460 529 35,000  Level Los Angeles Center
12:06PM 35.3800 -116.1875 50° Northeast 463 533 35,000  Level Los Angeles Center
12:07PM 35.4622 -116.0664 50° Northeast 464 534 35,000  Level Los Angeles Center
12:08PM 35.5639 -115.9214 49° Northeast 466 536 35,000  Level Los Angeles Center
12:09PM 35.6431 -115.8064 50° Northeast 466 536 35,000  Level Los Angeles Center
12:10PM 35.7264 -115.6842 50° Northeast 468 539 35,000  Level Los Angeles Center
12:11PM 35.8092 -115.5600 51° Northeast 470 541 35,000  Level Los Angeles Center
12:12PM 35.8650 -115.3794 69° East 481 554 35,000  Level Los Angeles Center
12:13PM 35.8983 -115.2206 75° East 482 555 35,000  Level Los Angeles Center
12:14PM 35.9297 -115.0631 76° East 480 552 35,000  Level Los Angeles Center
12:15PM 35.9622 -114.9019 76° East 485 558 35,000  Level Los Angeles Center
12:16PM 35.9964 -114.7419 75° East 485 558 35,000  Level Los Angeles Center
12:17PM 36.0350 -114.5486 76° East 486 559 35,000  Level Los Angeles Center
12:18PM 36.0664 -114.3881 76° East 483 556 35,000  Level Los Angeles Center
12:19PM 36.0983 -114.2272 76° East 483 556 35,000  Level Los Angeles Center
12:20PM 36.1306 -114.0669 76° East 482 555 35,000  Level Los Angeles Center
12:22PM 36.1625 -113.9061 76° East 482 555 35,000  Level Los Angeles Center
12:23PM 36.2000 -113.7147 76° East 479 551 35,000  Level Los Angeles Center
12:24PM 36.2300 -113.5539 77° East 480 552 35,000  Level Los Angeles Center
12:25PM 36.2611 -113.3925 77° East 481 554 35,000  Level Los Angeles Center
12:26PM 36.2908 -113.2381 77° East 479 551 35,000  Level Los Angeles Center
12:27PM 36.3200 -113.0786 77° East 477 549 35,000  Level Los Angeles Center
12:28PM 36.3575 -112.8850 76° East 481 554 35,000  Level Los Angeles Center
12:29PM 36.3869 -112.7244 77° East 480 552 35,000  Level Los Angeles Center
12:30PM 36.4161 -112.5636 77° East 481 554 35,000  Level Los Angeles Center
12:31PM 36.4447 -112.4028 77° East 480 552 35,000  Level Los Angeles Center
12:32PM 36.4747 -112.2439 77° East 477 549 35,000  Level Los Angeles Center
12:33PM 36.5089 -112.0508 78° East 478 550 35,000  Level Los Angeles Center
12:34PM 36.5378 -111.8925 77° East 475 547 35,000  Level Los Angeles Center
12:35PM 36.5656 -111.7331 78° East 474 545 35,000  Level Los Angeles Center
12:36PM 36.5928 -111.5742 78° East 472 543 35,000  Level Los Angeles Center
12:37PM 36.6206 -111.4161 78° East 471 542 35,000  Level Denver Center
12:38PM 36.6467 -111.2575 78° East 470 541 35,000  Level Denver Center
12:39PM 36.6744 -111.0992 78° East 470 541 35,000  Level Denver Center
12:40PM 36.7017 -110.9406 78° East 470 541 35,000  Level Denver Center
12:41PM 36.7264 -110.7836 79° East 467 537 35,000  Level Denver Center
12:42PM 36.7533 -110.6247 78° East 469 540 35,000  Level Denver Center
12:43PM 36.7842 -110.4358 78° East 465 535 35,000  Level Denver Center
12:44PM 36.8103 -110.2781 78° East 466 536 35,000  Level Denver Center
12:45PM 36.8344 -110.1264 79° East 465 535 35,000  Level Denver Center
12:46PM 36.8631 -109.9489 79° East 465 535 35,000  Level Denver Center
12:47PM 36.8872 -109.7972 79° East 464 534 35,000  Level Denver Center
12:48PM 36.9158 -109.6194 79° East 466 536 35,000  Level Denver Center
12:49PM 36.9389 -109.4664 79° East 467 537 35,000  Level Denver Center
12:50PM 36.9656 -109.2892 79° East 464 534 35,000  Level Denver Center
12:51PM 36.9892 -109.1364 79° East 465 535 35,000  Level Denver Center
12:52PM 37.0167 -108.9564 79° East 468 539 35,000  Level Denver Center
12:53PM 37.0394 -108.8022 79° East 470 541 35,000  Level Denver Center
12:54PM 37.0631 -108.6483 79° East 469 540 35,000  Level Denver Center
12:55PM 37.0886 -108.4675 80° East 471 542 35,000  Level Denver Center
12:57PM 37.1114 -108.3136 79° East 469 540 35,000  Level Denver Center
12:58PM 37.1372 -108.1350 80° East 468 539 35,000  Level Denver Center
12:59PM 37.1594 -107.9814 80° East 467 537 35,000  Level Denver Center
01:00PM 37.1847 -107.8025 80° East 464 534 35,000  Level Denver Center
01:01PM 37.2056 -107.6475 80° East 470 541 35,000  Level Denver Center
01:02PM 37.2306 -107.4678 80° East 469 540 35,000  Level Denver Center
01:03PM 37.2514 -107.3144 80° East 467 537 35,000  Level Denver Center
01:04PM 37.2722 -107.1608 80° East 466 536 35,000  Level Denver Center
01:05PM 37.2958 -106.9822 81° East 464 534 35,000  Level Denver Center
01:06PM 37.3158 -106.8286 81° East 466 536 35,000  Level Denver Center
01:07PM 37.3406 -106.6497 80° East 464 534 35,000  Level Denver Center
01:08PM 37.3600 -106.4958 81° East 466 536 35,000  Level Denver Center
01:09PM 37.3836 -106.3161 81° East 466 536 35,000  Level Denver Center
01:10PM 37.4019 -106.1617 81° East 467 537 35,000  Level Denver Center
01:11PM 37.4239 -105.9814 81° East 468 539 35,000  Level Denver Center
01:12PM 37.4425 -105.8275 81° East 465 535 35,000  Level Denver Center
01:13PM 37.4628 -105.6467 82° East 467 537 35,000  Level Denver Center
01:14PM 37.4822 -105.4939 81° East 463 533 35,000  Level Denver Center
01:15PM 37.5075 -105.3183 80° East 459 528 35,000  Level Denver Center
01:16PM 37.5219 -105.1597 83° East 467 537 35,000  Level Denver Center
01:17PM 37.5408 -105.0061 81° East 467 537 35,000  Level Denver Center
01:18PM 37.5611 -104.8269 82° East 462 532 35,000  Level Denver Center
01:19PM 37.5792 -104.6728 82° East 464 534 35,000  Level Denver Center
01:20PM 37.5989 -104.4931 82° East 463 533 35,000  Level Denver Center
01:21PM 37.6156 -104.3381 82° East 465 535 35,000  Level Denver Center
01:22PM 37.6344 -104.1569 82° East 462 532 35,000  Level Denver Center
01:23PM 37.6517 -103.9994 82° East 461 531 35,000  Level Denver Center
01:24PM 37.6689 -103.8417 82° East 465 535 35,000  Level Denver Center
01:25PM 37.6878 -103.6608 82° East 464 534 35,000  Level Denver Center
01:27PM 37.7031 -103.5064 83° East 462 532 35,000  Level Denver Center
01:28PM 37.7206 -103.3253 83° East 465 535 35,000  Level Denver Center
01:29PM 37.7364 -103.1686 83° East 468 539 35,000  Level Denver Center
01:30PM 37.7506 -103.0117 83° East 470 541 35,000  Level Denver Center
01:31PM 37.7683 -102.8272 83° East 473 544 35,000  Level Denver Center
01:32PM 37.7839 -102.6700 83° East 472 543 35,000  Level Denver Center
01:33PM 37.8031 -102.4853 82° East 473 544 35,000  Level Denver Center
01:34PM 37.8183 -102.3089 84° East 473 544 35,000  Level Denver Center
01:35PM 37.8333 -102.1511 83° East 472 543 35,000  Level Denver Center
01:36PM 37.8500 -101.9656 83° East 473 544 35,000  Level Denver Center
01:37PM 37.8631 -101.8072 84° East 473 544 35,000  Level Denver Center
01:38PM 37.8781 -101.6486 83° East 474 545 35,000  Level Denver Center
01:39PM 37.8936 -101.4614 84° East 478 550 35,000  Level Denver Center
01:40PM 37.9069 -101.3017 84° East 477 549 35,000  Level Denver Center
01:41PM 37.9228 -101.1128 84° East 480 552 35,000  Level Denver Center
01:42PM 37.9356 -100.9506 84° East 480 552 35,000  Level Denver Center
01:43PM 37.9511 -100.7594 84° East 483 556 35,000  Level Kansas City Center
01:44PM 37.9636 -100.5975 84° East 481 554 35,000  Level Kansas City Center
01:45PM 37.9781 -100.4103 84° East 478 550 35,000  Level Kansas City Center
01:46PM 37.9897 -100.2492 85° East 478 550 35,000  Level Kansas City Center
01:47PM 38.0031 -100.0625 85° East 476 548 35,000  Level Kansas City Center
01:48PM 38.0144 -99.9033 85° East 475 547 35,000  Level Kansas City Center
01:49PM 38.0272 -99.7178 85° East 474 545 35,000  Level Kansas City Center
01:50PM 38.0381 -99.5592 85° East 472 543 35,000  Level Kansas City Center
01:51PM 38.0483 -99.4058 85° East 470 541 35,000  Level Kansas City Center
01:52PM 38.0594 -99.2419 85° East 468 539 35,000  Level Kansas City Center
01:53PM 38.0717 -99.0447 85° East 466 536 35,000  Level Kansas City Center
01:54PM 38.0819 -98.8819 85° East 464 534 35,000  Level Kansas City Center
01:56PM 38.0925 -98.7197 85° East 461 531 35,000  Level Kansas City Center
01:57PM 38.1025 -98.5561 86° East 462 532 35,000  Level Kansas City Center
01:58PM 38.1125 -98.3919 86° East 466 536 35,000  Level Kansas City Center
01:59PM 38.1225 -98.2294 85° East 460 529 35,000  Level Kansas City Center
02:00PM 38.1306 -98.0333 87° East 462 532 35,000  Level Kansas City Center
02:01PM 38.1400 -97.8706 86° East 462 532 35,000  Level Kansas City Center
02:02PM 38.1483 -97.7100 86° East 462 532 35,000  Level Kansas City Center
02:03PM 38.1567 -97.5494 86° East 458 527 35,000  Level Kansas City Center
02:04PM 38.1664 -97.3761 86° East 458 527 35,000  Level Kansas City Center
02:05PM 38.1744 -97.2147 86° East 458 527 35,000  Level Kansas City Center
02:06PM 38.1814 -97.0533 87° East 457 526 35,000  Level Kansas City Center
02:07PM 38.1886 -96.8933 87° East 454 522 35,000  Level Kansas City Center
02:08PM 38.1961 -96.7347 87° East 451 519 35,000  Level Kansas City Center
02:09PM 38.2044 -96.5433 87° East 452 520 35,000  Level Kansas City Center
02:10PM 38.2103 -96.4008 87° East 447 514 35,000  Level Kansas City Center
02:11PM 38.2164 -96.2233 87° East 450 518 35,000  Level Kansas City Center
02:12PM 38.2222 -96.0703 87° East 454 522 35,000  Level Kansas City Center
02:13PM 38.2292 -95.8925 87° East 452 520 35,000  Level Kansas City Center
02:14PM 38.2347 -95.7383 87° East 456 525 35,000  Level Kansas City Center
02:15PM 38.2403 -95.5594 88° East 456 525 35,000  Level Kansas City Center
02:16PM 38.2461 -95.4047 87° East 459 528 35,000  Level Kansas City Center
02:17PM 38.2517 -95.2253 88° East 456 525 35,000  Level Kansas City Center
02:18PM 38.2558 -95.0717 88° East 456 525 35,000  Level Kansas City Center
02:19PM 38.2611 -94.8908 88° East 458 527 35,000  Level Kansas City Center
02:20PM 38.2653 -94.7336 88° East 461 531 35,000  Level Kansas City Center
02:21PM 38.2708 -94.5522 88° East 461 531 35,000  Level Kansas City Center
02:22PM 38.2850 -94.3986 83° East 461 531 35,000  Level Kansas City Center
02:23PM 38.3164 -94.2208 77° East 461 531 35,000  Level Kansas City Center
02:24PM 38.3414 -94.0672 78° East 464 534 35,000  Level Kansas City Center
02:25PM 38.3661 -93.9064 79° East 464 534 35,000 -300 Level Kansas City Center
02:27PM 38.3917 -93.7458 78° East 462 532 34,500 -780 Descending Kansas City Center
02:28PM 38.4228 -93.5472 79° East 471 542 33,400 -1,020 Descending Kansas City Center
02:29PM 38.4497 -93.3794 78° East 477 549 32,500 -960 Descending Kansas City Center
02:30PM 38.4769 -93.2097 78° East 483 556 31,500 -960 Descending Kansas City Center
02:31PM 38.5031 -93.0389 79° East 486 559 30,600 -960 Descending Kansas City Center
02:32PM 38.5289 -92.8678 79° East 487 560 29,600 -780 Descending Kansas City Center
02:33PM 38.5547 -92.6961 79° East 488 562 29,000 -300 Descending Kansas City Center
02:34PM 38.5786 -92.5239 80° East 488 562 29,000  Level Kansas City Center
02:35PM 38.6036 -92.3547 79° East 484 557 29,000  Level Kansas City Center
02:36PM 38.6267 -92.1919 80° East 468 539 29,000  Level Kansas City Center
02:37PM 38.6542 -92.0025 79° East 452 520 29,000 -840 Level Kansas City Center
02:38PM 38.6761 -91.8458 80° East 446 513 27,300 -2,040 Descending Kansas City Center
02:39PM 38.6933 -91.6856 82° East 451 519 24,900 -2,340 Descending Kansas City Center
02:40PM 38.6908 -91.5269 91° East 445 512 22,500 -2,400 Descending Kansas City Center
02:41PM 38.6925 -91.3661 89° East 429 494 20,000 -2,280 Descending Kansas City Center
02:42PM 38.6928 -91.2228 90° East 412 474 17,800 -2,160 Descending Kansas City Center
02:43PM 38.6958 -91.0850 88° East 394 453 15,600 -2,040 Descending Kansas City Center
02:44PM 38.7003 -90.9533 87° East 377 434 13,700 -2,040 Descending Kansas City Center
02:45PM 38.7031 -90.8250 88° East 365 420 11,500 -1,740 Descending Kansas City Center
02:46PM 38.7075 -90.7028 87° East 350 403 10,200 -1,260 Descending Kansas City Center
02:47PM 38.7119 -90.5750 87° East 304 350 8,900 -1,260 Descending Kansas City Center
02:48PM 38.6922 -90.4822 105° East 282 325 7,700 -900 Descending Kansas City Center
02:49PM 38.6553 -90.4075 122° Southeast 267 307 7,100 -780 Descending Kansas City Center
02:50PM 38.6217 -90.3392 122° Southeast 244 281 6,100 -1,200 Descending Kansas City Center
02:51PM 38.5956 -90.2514 111° Southeast 234 269 4,700 -780 Descending Kansas City Center
02:52PM 38.6428 -90.1969 42° Northeast 240 276 4,500 -540 Descending Kansas City Center
02:53PM 38.6839 -90.2297 328° Northwest 219 252 3,600 -1,260 Descending Kansas City Center
02:54PM 38.7078 -90.2772 303° West 183 211 1,900 -1,260 Descending Kansas City Center
02:55PM 38.7311 -90.3236 303° West 166 191 1,000 -660 Descending Kansas City Center
02:56PM 38.7581 -90.3775 303° West 162 186 600 -420 Descending Kansas City Center